createdAt,value
2022-07-31T00:00:24.116Z,49.78
2022-07-31T00:02:52.656Z,49.73
2022-07-31T00:05:20.577Z,50.00
2022-07-31T00:07:50.258Z,49.82
2022-07-31T00:10:21.388Z,49.65
2022-07-31T00:12:49.365Z,50.03
2022-07-31T00:15:17.523Z,50.14
2022-07-31T00:17:46.522Z,50.17
2022-07-31T00:20:16.855Z,49.95
2022-07-31T00:22:46.368Z,50.11
2022-07-31T00:25:16.885Z,50.25
2022-07-31T00:27:45.508Z,50.27
2022-07-31T00:30:14.258Z,50.33
2022-07-31T00:32:42.730Z,50.44
2022-07-31T00:35:12.467Z,50.35
2022-07-31T00:37:41.477Z,50.26
2022-07-31T00:40:15.531Z,50.43
2022-07-31T00:42:46.118Z,50.37
2022-07-31T00:45:14.266Z,50.37
2022-07-31T00:47:42.882Z,50.57
2022-07-31T00:50:12.903Z,50.54
2022-07-31T00:52:41.080Z,50.79
2022-07-31T00:55:09.967Z,50.74
2022-07-31T00:57:38.087Z,50.92
2022-07-31T01:00:08.647Z,51.01
2022-07-31T01:02:38.427Z,50.99
2022-07-31T01:05:14.665Z,51.12
2022-07-31T01:07:42.607Z,51.13
2022-07-31T01:10:12.375Z,51.13
2022-07-31T01:12:50.914Z,50.96
2022-07-31T01:15:26.374Z,51.25
2022-07-31T01:17:55.816Z,51.47
2022-07-31T01:20:24.185Z,51.53
2022-07-31T01:23:17.449Z,51.79
2022-07-31T01:25:56.909Z,51.71
2022-07-31T01:28:35.963Z,51.94
2022-07-31T01:34:04.570Z,52.04
2022-07-31T01:36:35.766Z,51.97
2022-07-31T01:39:04.811Z,52.15
2022-07-31T01:41:37.366Z,52.31
2022-07-31T01:44:08.032Z,52.18
2022-07-31T01:46:45.822Z,52.38
2022-07-31T01:49:14.878Z,52.51
2022-07-31T01:51:45.527Z,52.60
2022-07-31T01:54:15.340Z,52.87
2022-07-31T01:56:44.759Z,52.83
2022-07-31T01:59:20.515Z,53.14
2022-07-31T02:01:53.619Z,53.20
2022-07-31T02:04:23.157Z,53.26
2022-07-31T02:06:52.222Z,53.21
2022-07-31T02:09:22.213Z,53.57
2022-07-31T02:11:54.454Z,53.90
2022-07-31T02:14:24.275Z,54.39
2022-07-31T02:16:53.990Z,54.27
2022-07-31T02:19:23.477Z,54.44
2022-07-31T02:21:51.566Z,54.55
2022-07-31T02:24:19.807Z,54.82
2022-07-31T02:26:48.540Z,54.81
2022-07-31T02:29:19.766Z,54.92
2022-07-31T02:32:02.511Z,55.10
2022-07-31T02:34:35.475Z,55.24
2022-07-31T02:37:04.454Z,55.12
2022-07-31T02:39:33.742Z,55.25
2022-07-31T02:42:02.854Z,55.28
2022-07-31T02:44:34.708Z,55.41
2022-07-31T02:47:05.317Z,55.20
2022-07-31T02:49:34.964Z,55.10
2022-07-31T02:52:04.615Z,55.11
2022-07-31T02:54:33.250Z,55.32
2022-07-31T02:57:03.252Z,55.38
2022-07-31T02:59:31.140Z,55.49
2022-07-31T03:01:59.016Z,55.42
2022-07-31T03:04:26.783Z,55.36
2022-07-31T03:06:56.019Z,55.40
2022-07-31T03:09:23.835Z,55.61
2022-07-31T03:11:52.200Z,55.53
2022-07-31T03:14:21.694Z,55.53
2022-07-31T03:16:50.943Z,55.82
2022-07-31T03:19:19.565Z,55.54
2022-07-31T03:21:51.792Z,55.71
2022-07-31T03:24:21.784Z,55.76
2022-07-31T03:26:49.610Z,55.77
2022-07-31T03:29:41.601Z,55.91
2022-07-31T03:32:07.215Z,55.94
2022-07-31T03:34:35.108Z,56.06
2022-07-31T03:37:03.072Z,56.15
2022-07-31T03:39:32.336Z,56.11
2022-07-31T03:42:00.593Z,55.90
2022-07-31T03:44:29.494Z,55.86
2022-07-31T03:46:57.490Z,55.96
2022-07-31T03:49:25.714Z,55.86
2022-07-31T03:51:53.738Z,55.79
2022-07-31T03:54:21.616Z,55.70
2022-07-31T03:56:53.558Z,55.81
2022-07-31T03:59:21.801Z,55.68
2022-07-31T04:02:10.358Z,55.74
2022-07-31T04:04:38.327Z,55.85
2022-07-31T04:07:06.574Z,55.78
2022-07-31T04:09:34.635Z,55.57
2022-07-31T04:12:04.218Z,55.49
2022-07-31T04:14:32.374Z,55.39
2022-07-31T04:17:00.140Z,55.33
2022-07-31T04:19:30.985Z,55.39
2022-07-31T04:21:58.959Z,55.67
2022-07-31T04:24:27.187Z,55.53
2022-07-31T04:26:56.270Z,55.54
2022-07-31T04:29:28.630Z,55.72
2022-07-31T04:31:56.396Z,56.05
2022-07-31T04:34:24.244Z,55.89
2022-07-31T04:36:52.025Z,56.16
2022-07-31T04:39:19.825Z,56.09
2022-07-31T04:41:49.283Z,56.29
2022-07-31T04:44:17.097Z,56.48
2022-07-31T04:46:46.338Z,56.42
2022-07-31T04:49:15.260Z,56.23
2022-07-31T04:51:43.849Z,56.47
2022-07-31T04:54:12.170Z,56.51
2022-07-31T04:56:43.057Z,56.48
2022-07-31T04:59:12.256Z,56.71
2022-07-31T05:01:41.712Z,56.87
2022-07-31T05:04:11.317Z,57.02
2022-07-31T05:06:40.975Z,57.01
2022-07-31T05:09:16.421Z,56.90
2022-07-31T05:11:47.572Z,57.19
2022-07-31T05:14:17.667Z,57.25
2022-07-31T05:16:45.671Z,57.27
2022-07-31T05:19:15.585Z,57.33
2022-07-31T05:21:53.192Z,57.46
2022-07-31T05:24:33.340Z,57.61
2022-07-31T05:27:02.507Z,57.73
2022-07-31T05:29:30.469Z,57.80
2022-07-31T05:32:00.601Z,57.52
2022-07-31T05:34:30.978Z,57.75
2022-07-31T05:36:59.081Z,57.71
2022-07-31T05:39:28.163Z,57.68
2022-07-31T05:41:55.984Z,57.46
2022-07-31T05:44:24.489Z,57.68
2022-07-31T05:49:19.219Z,57.77
2022-07-31T05:51:54.048Z,57.72
2022-07-31T05:54:22.158Z,57.54
2022-07-31T05:56:50.118Z,57.75
2022-07-31T05:59:17.894Z,57.89
2022-07-31T06:01:46.576Z,58.02
2022-07-31T06:04:14.471Z,57.94
2022-07-31T06:06:42.282Z,58.05
2022-07-31T06:09:11.753Z,57.81
2022-07-31T06:11:39.713Z,57.74
2022-07-31T06:14:08.229Z,57.70
2022-07-31T06:16:36.135Z,57.79
2022-07-31T06:19:03.973Z,57.66
2022-07-31T06:21:31.767Z,57.53
2022-07-31T06:23:59.630Z,58.03
2022-07-31T06:26:28.840Z,57.56
2022-07-31T06:28:57.352Z,57.75
2022-07-31T06:31:25.161Z,57.46
2022-07-31T06:33:53.022Z,57.00
2022-07-31T06:36:20.973Z,57.06
2022-07-31T06:38:48.950Z,56.68
2022-07-31T06:41:37.562Z,56.62
2022-07-31T06:44:06.797Z,56.47
2022-07-31T06:46:34.689Z,56.13
2022-07-31T06:49:06.791Z,56.15
2022-07-31T06:51:36.955Z,57.08
2022-07-31T06:54:06.853Z,57.10
2022-07-31T06:56:36.042Z,57.42
2022-07-31T06:59:04.355Z,58.01
2022-07-31T07:01:33.901Z,59.43
2022-07-31T07:04:01.981Z,60.07
2022-07-31T07:06:29.908Z,60.72
2022-07-31T07:08:57.748Z,61.92
2022-07-31T07:11:25.497Z,61.05
2022-07-31T07:13:53.293Z,62.05
2022-07-31T07:16:21.131Z,61.53
2022-07-31T07:18:50.380Z,62.37
2022-07-31T07:21:18.169Z,62.20
2022-07-31T07:23:46.032Z,61.50
2022-07-31T07:26:13.918Z,60.76
2022-07-31T07:28:41.777Z,61.12
2022-07-31T07:31:09.545Z,61.03
2022-07-31T07:33:40.008Z,61.10
2022-07-31T07:36:22.780Z,61.52
2022-07-31T07:38:53.415Z,60.88
2022-07-31T07:41:21.429Z,60.96
2022-07-31T07:43:52.493Z,60.72
2022-07-31T07:46:20.947Z,60.08
2022-07-31T07:48:50.643Z,60.20
2022-07-31T07:51:21.093Z,60.15
2022-07-31T07:53:48.942Z,59.86
2022-07-31T07:56:16.823Z,60.08
2022-07-31T07:58:44.740Z,59.72
2022-07-31T08:01:12.730Z,59.83
2022-07-31T08:03:53.092Z,59.71
2022-07-31T08:06:25.382Z,59.90
2022-07-31T08:08:55.917Z,59.97
2022-07-31T08:11:28.997Z,59.93
2022-07-31T08:13:56.942Z,60.35
2022-07-31T08:16:27.668Z,59.87
2022-07-31T08:18:55.445Z,59.31
2022-07-31T08:21:25.541Z,59.49
2022-07-31T08:23:53.841Z,59.13
2022-07-31T08:26:21.666Z,59.03
2022-07-31T08:28:51.217Z,59.20
2022-07-31T08:31:19.948Z,59.49
2022-07-31T08:33:48.120Z,59.04
2022-07-31T08:36:15.987Z,59.66
2022-07-31T08:38:45.222Z,59.77
2022-07-31T08:41:17.316Z,59.58
2022-07-31T08:43:59.883Z,59.68
2022-07-31T08:46:34.559Z,59.80
2022-07-31T08:49:03.923Z,60.16
2022-07-31T08:51:51.030Z,59.73
2022-07-31T08:54:23.866Z,59.85
2022-07-31T08:56:53.041Z,59.74
2022-07-31T08:59:22.010Z,59.72
2022-07-31T09:01:51.297Z,59.56
2022-07-31T09:04:19.241Z,59.60
2022-07-31T09:06:50.294Z,59.28
2022-07-31T09:09:18.934Z,59.14
2022-07-31T09:11:49.199Z,59.04
2022-07-31T09:14:26.470Z,59.39
2022-07-31T09:16:54.670Z,59.20
2022-07-31T09:19:52.287Z,59.34
2022-07-31T09:22:20.858Z,58.78
2022-07-31T09:24:49.043Z,58.37
2022-07-31T09:27:18.537Z,58.73
2022-07-31T09:29:49.245Z,58.58
2022-07-31T09:32:18.815Z,57.88
2022-07-31T09:34:48.314Z,57.68
2022-07-31T09:37:17.719Z,57.55
2022-07-31T09:39:52.126Z,57.77
2022-07-31T09:42:22.630Z,57.93
2022-07-31T09:45:20.220Z,57.36
2022-07-31T09:47:48.868Z,57.40
2022-07-31T09:50:25.024Z,57.14
2022-07-31T09:53:00.582Z,57.68
2022-07-31T09:55:29.026Z,57.61
2022-07-31T09:58:00.553Z,56.75
2022-07-31T10:00:30.341Z,56.60
2022-07-31T10:02:58.912Z,56.06
2022-07-31T10:05:28.151Z,55.90
2022-07-31T10:08:00.297Z,55.93
2022-07-31T10:10:30.212Z,56.00
2022-07-31T10:13:03.387Z,56.09
2022-07-31T10:15:36.245Z,56.00
2022-07-31T10:18:05.549Z,56.13
2022-07-31T10:20:35.459Z,56.32
2022-07-31T10:23:07.739Z,55.87
2022-07-31T10:25:39.184Z,56.16
2022-07-31T10:28:09.002Z,55.99
2022-07-31T10:30:39.052Z,54.93
2022-07-31T10:33:27.943Z,54.37
2022-07-31T10:36:03.911Z,54.47
2022-07-31T10:38:48.607Z,54.61
2022-07-31T10:41:25.271Z,54.56
2022-07-31T10:44:00.895Z,54.87
2022-07-31T10:46:29.903Z,54.65
2022-07-31T10:48:58.200Z,55.04
2022-07-31T10:51:27.100Z,55.22
2022-07-31T10:53:56.876Z,55.85
2022-07-31T10:56:26.595Z,55.51
2022-07-31T10:58:58.062Z,55.00
2022-07-31T11:01:26.810Z,55.42
2022-07-31T11:04:00.243Z,55.13
2022-07-31T11:06:38.700Z,54.62
2022-07-31T11:09:08.532Z,54.53
2022-07-31T11:11:38.209Z,54.86
2022-07-31T11:14:07.540Z,55.09
2022-07-31T11:16:35.392Z,56.44
2022-07-31T11:19:04.735Z,56.89
2022-07-31T11:21:39.503Z,58.22
2022-07-31T11:24:16.050Z,59.36
2022-07-31T11:26:52.937Z,59.76
2022-07-31T11:29:59.631Z,59.17
2022-07-31T11:32:25.271Z,58.18
2022-07-31T11:34:55.551Z,58.28
2022-07-31T11:37:30.639Z,58.65
2022-07-31T11:40:27.422Z,57.33
2022-07-31T11:43:24.222Z,57.10
2022-07-31T11:45:49.873Z,57.03
2022-07-31T11:48:25.447Z,56.06
2022-07-31T11:50:55.861Z,55.72
2022-07-31T11:53:27.664Z,55.62
2022-07-31T11:56:01.314Z,55.16
2022-07-31T11:58:30.604Z,55.03
2022-07-31T12:01:02.043Z,54.87
2022-07-31T12:03:31.847Z,54.60
2022-07-31T12:06:03.033Z,53.85
2022-07-31T12:08:48.978Z,54.28
2022-07-31T12:11:33.240Z,54.00
2022-07-31T12:14:03.262Z,53.97
2022-07-31T12:16:43.932Z,53.65
2022-07-31T12:19:37.558Z,53.55
2022-07-31T12:22:16.434Z,53.04
2022-07-31T12:24:47.566Z,53.22
2022-07-31T12:27:17.666Z,53.29
2022-07-31T12:29:49.458Z,52.98
2022-07-31T12:32:25.485Z,52.85
2022-07-31T12:35:03.055Z,52.93
2022-07-31T12:37:32.488Z,52.53
2022-07-31T12:40:05.784Z,52.09
2022-07-31T12:42:41.279Z,52.23
2022-07-31T12:45:19.708Z,52.00
2022-07-31T12:48:02.451Z,51.89
2022-07-31T12:50:36.510Z,51.33
2022-07-31T12:53:05.713Z,51.19
2022-07-31T12:55:35.886Z,51.25
2022-07-31T12:58:04.287Z,51.73
2022-07-31T13:00:35.740Z,51.73
2022-07-31T13:03:07.986Z,51.81
2022-07-31T13:05:36.423Z,51.75
2022-07-31T13:08:08.809Z,52.10
2022-07-31T13:10:39.080Z,51.92
2022-07-31T13:13:07.336Z,52.08
2022-07-31T13:15:38.296Z,51.95
2022-07-31T13:18:09.873Z,51.76
2022-07-31T13:20:42.444Z,51.76
2022-07-31T13:23:17.237Z,51.73
2022-07-31T13:25:46.820Z,51.24
2022-07-31T13:28:25.501Z,51.11
2022-07-31T13:30:55.345Z,51.07
2022-07-31T13:33:24.977Z,51.68
2022-07-31T13:35:53.150Z,52.03
2022-07-31T13:38:22.953Z,51.96
2022-07-31T13:41:08.874Z,51.87
2022-07-31T13:43:36.797Z,52.00
2022-07-31T13:46:05.304Z,51.86
2022-07-31T13:48:35.238Z,51.86
2022-07-31T13:51:03.139Z,51.79
2022-07-31T13:53:30.984Z,51.82
2022-07-31T13:55:59.018Z,51.63
2022-07-31T13:58:28.215Z,51.37
2022-07-31T14:01:00.200Z,51.68
2022-07-31T14:03:30.586Z,51.36
2022-07-31T14:06:04.257Z,52.03
2022-07-31T14:08:49.861Z,52.09
2022-07-31T14:11:18.461Z,52.24
2022-07-31T14:13:46.209Z,52.62
2022-07-31T14:16:14.120Z,52.50
2022-07-31T14:18:41.929Z,52.78
2022-07-31T14:21:11.199Z,53.08
2022-07-31T14:23:44.603Z,52.94
2022-07-31T14:26:12.371Z,52.61
2022-07-31T14:28:40.154Z,52.47
2022-07-31T14:31:07.997Z,52.52
2022-07-31T14:33:35.832Z,52.58
2022-07-31T14:36:05.851Z,52.03
2022-07-31T14:38:35.124Z,51.93
2022-07-31T14:41:03.703Z,51.98
2022-07-31T14:43:31.714Z,51.82
2022-07-31T14:45:59.474Z,52.16
2022-07-31T14:48:28.245Z,51.21
2022-07-31T14:50:56.443Z,51.64
2022-07-31T14:53:24.264Z,51.13
2022-07-31T14:55:53.478Z,50.82
2022-07-31T14:58:31.663Z,50.68
2022-07-31T15:01:02.073Z,51.08
2022-07-31T15:03:29.998Z,50.73
2022-07-31T15:06:51.606Z,51.24
2022-07-31T15:08:45.620Z,50.78
2022-07-31T15:11:14.731Z,51.06
2022-07-31T15:13:43.934Z,50.57
2022-07-31T15:16:11.707Z,50.93
2022-07-31T15:18:39.512Z,51.09
2022-07-31T15:21:07.275Z,50.84
2022-07-31T15:23:36.076Z,50.90
2022-07-31T15:26:09.398Z,50.45
2022-07-31T15:28:38.665Z,50.59
2022-07-31T15:31:06.939Z,50.62
2022-07-31T15:33:34.784Z,50.49
2022-07-31T15:36:03.432Z,50.57
2022-07-31T15:38:33.707Z,50.56
2022-07-31T15:41:01.724Z,51.00
2022-07-31T15:43:35.088Z,51.26
2022-07-31T15:46:08.211Z,51.46
2022-07-31T15:48:36.841Z,51.30
2022-07-31T15:51:05.829Z,51.28
2022-07-31T15:53:37.329Z,51.57
2022-07-31T15:56:07.525Z,51.92
2022-07-31T15:58:35.448Z,52.03
2022-07-31T16:01:04.667Z,52.37
2022-07-31T16:03:50.383Z,51.94
2022-07-31T16:06:20.409Z,51.57
2022-07-31T16:08:56.008Z,51.79
2022-07-31T16:11:23.791Z,51.71
2022-07-31T16:14:11.660Z,51.55
2022-07-31T16:16:45.499Z,51.59
2022-07-31T16:19:13.640Z,51.90
2022-07-31T16:21:43.128Z,51.63
2022-07-31T16:24:10.927Z,51.50
2022-07-31T16:26:40.391Z,51.32
2022-07-31T16:29:09.717Z,51.28
2022-07-31T16:31:48.439Z,51.36
2022-07-31T16:34:16.310Z,51.71
2022-07-31T16:36:44.349Z,51.46
2022-07-31T16:39:20.395Z,52.27
2022-07-31T16:41:54.248Z,54.74
2022-07-31T16:44:23.008Z,56.60
2022-07-31T16:46:54.847Z,64.55
2022-07-31T16:49:35.909Z,66.42
2022-07-31T16:52:05.356Z,69.23
2022-07-31T16:54:35.379Z,72.64
2022-07-31T16:57:03.583Z,71.45
2022-07-31T16:59:31.665Z,75.14
2022-07-31T17:02:01.417Z,75.59
2022-07-31T17:04:29.927Z,77.00
2022-07-31T17:07:01.089Z,75.23
2022-07-31T17:09:30.792Z,75.55
2022-07-31T17:11:58.664Z,74.63
2022-07-31T17:14:28.644Z,74.11
2022-07-31T17:16:57.114Z,73.77
2022-07-31T17:19:42.544Z,74.81
2022-07-31T17:22:17.679Z,74.33
2022-07-31T17:24:50.411Z,73.89
2022-07-31T17:27:18.868Z,74.99
2022-07-31T17:29:46.911Z,73.98
2022-07-31T17:32:14.820Z,73.85
2022-07-31T17:34:46.353Z,74.11
2022-07-31T17:37:14.578Z,74.41
2022-07-31T17:39:42.446Z,75.82
2022-07-31T17:42:10.256Z,75.33
2022-07-31T17:44:39.917Z,75.69
2022-07-31T17:47:08.767Z,77.21
2022-07-31T17:49:37.121Z,76.75
2022-07-31T17:52:07.538Z,76.04
2022-07-31T17:54:35.477Z,76.71
2022-07-31T17:57:04.152Z,76.98
2022-07-31T17:59:32.570Z,78.20
2022-07-31T18:02:00.999Z,77.93
2022-07-31T18:04:29.861Z,77.84
2022-07-31T18:06:58.631Z,78.13
2022-07-31T18:09:29.534Z,77.68
2022-07-31T18:11:58.144Z,78.13
2022-07-31T18:14:26.777Z,78.57
2022-07-31T18:16:55.425Z,78.19
2022-07-31T18:19:23.741Z,79.37
2022-07-31T18:21:52.621Z,79.28
2022-07-31T18:24:21.192Z,79.87
2022-07-31T18:26:51.049Z,79.15
2022-07-31T18:29:18.953Z,80.48
2022-07-31T18:31:47.703Z,80.46
2022-07-31T18:34:16.127Z,80.63
2022-07-31T18:36:44.043Z,80.56
2022-07-31T18:39:11.969Z,80.50
2022-07-31T18:41:39.889Z,81.62
2022-07-31T18:44:09.329Z,82.04
2022-07-31T18:46:37.203Z,82.22
2022-07-31T18:49:08.115Z,82.54
2022-07-31T18:51:54.506Z,82.88
2022-07-31T18:54:22.509Z,82.04
2022-07-31T18:56:53.181Z,81.19
2022-07-31T18:59:22.517Z,81.04
2022-07-31T19:01:50.459Z,81.28
2022-07-31T19:04:18.394Z,81.00
2022-07-31T19:06:46.497Z,80.76
2022-07-31T19:09:14.432Z,81.83
2022-07-31T19:11:50.760Z,81.47
2022-07-31T19:14:21.767Z,81.34
2022-07-31T19:16:53.389Z,81.00
2022-07-31T19:19:21.483Z,81.60
2022-07-31T19:21:50.005Z,81.78
2022-07-31T19:24:18.215Z,81.31
2022-07-31T19:26:49.226Z,82.00
2022-07-31T19:29:18.821Z,81.80
2022-07-31T19:31:47.785Z,81.07
2022-07-31T19:34:18.351Z,81.30
2022-07-31T19:36:47.210Z,81.41
2022-07-31T19:39:16.398Z,80.47
2022-07-31T19:42:10.842Z,81.27
2022-07-31T19:45:12.385Z,81.28
2022-07-31T19:47:41.179Z,81.32
2022-07-31T19:50:12.313Z,81.58
2022-07-31T19:52:40.614Z,81.67
2022-07-31T19:55:10.786Z,81.15
2022-07-31T19:57:38.982Z,81.40
2022-07-31T20:00:09.475Z,81.52
2022-07-31T20:02:37.760Z,80.66
2022-07-31T20:05:06.594Z,81.63
2022-07-31T20:07:38.141Z,81.27
2022-07-31T20:10:07.895Z,81.78
2022-07-31T20:12:35.927Z,81.44
2022-07-31T20:15:04.184Z,81.64
2022-07-31T20:17:32.638Z,81.65
2022-07-31T20:20:14.471Z,81.36
2022-07-31T20:22:45.440Z,81.51
2022-07-31T20:25:20.075Z,81.72
2022-07-31T20:27:48.726Z,81.04
2022-07-31T20:30:21.722Z,81.23
2022-07-31T20:32:49.665Z,81.27
2022-07-31T20:35:33.040Z,81.78
2022-07-31T20:38:15.636Z,80.79
2022-07-31T20:40:53.822Z,81.10
2022-07-31T20:43:23.862Z,80.82
2022-07-31T20:45:52.190Z,80.74
2022-07-31T20:48:21.920Z,80.91
2022-07-31T20:50:50.089Z,81.30
2022-07-31T20:53:20.938Z,80.78
2022-07-31T20:55:50.082Z,80.95
2022-07-31T20:58:18.698Z,81.15
2022-07-31T21:00:47.484Z,81.02
2022-07-31T21:03:15.695Z,80.96
2022-07-31T21:05:43.588Z,80.69
2022-07-31T21:08:11.978Z,81.11
2022-07-31T21:10:41.311Z,81.04
2022-07-31T21:13:09.384Z,80.87
2022-07-31T21:15:42.814Z,81.16
2022-07-31T21:18:13.283Z,81.28
2022-07-31T21:20:52.374Z,81.28
2022-07-31T21:23:48.101Z,81.79
2022-07-31T21:26:23.006Z,81.64
2022-07-31T21:28:51.393Z,82.04
2022-07-31T21:31:19.675Z,81.92
2022-07-31T21:33:48.971Z,82.39
2022-07-31T21:36:16.938Z,81.61
2022-07-31T21:38:45.236Z,82.23
2022-07-31T21:41:13.582Z,81.87
2022-07-31T21:43:58.167Z,82.11
2022-07-31T21:46:29.959Z,82.03
2022-07-31T21:48:58.197Z,81.83
2022-07-31T21:51:26.569Z,82.03
2022-07-31T21:53:54.368Z,81.98
2022-07-31T21:56:22.226Z,82.50
2022-07-31T21:58:51.412Z,82.33
2022-07-31T22:01:19.356Z,82.37
2022-07-31T22:03:47.284Z,82.47
2022-07-31T22:06:32.564Z,82.70
2022-07-31T22:09:00.410Z,83.03
2022-07-31T22:11:28.227Z,82.78
2022-07-31T22:13:57.438Z,82.94
2022-07-31T22:16:25.218Z,82.74
2022-07-31T22:18:53.671Z,82.48
2022-07-31T22:21:21.963Z,82.65
2022-07-31T22:23:50.246Z,82.74
2022-07-31T22:26:18.310Z,82.68
2022-07-31T22:28:47.401Z,82.96
2022-07-31T22:31:17.203Z,83.22
2022-07-31T22:33:45.219Z,83.31
2022-07-31T22:36:13.319Z,83.67
2022-07-31T22:38:44.264Z,83.73
2022-07-31T22:41:13.276Z,83.18
2022-07-31T22:44:10.710Z,83.45
2022-07-31T22:46:32.568Z,83.59
2022-07-31T22:49:01.194Z,83.75
2022-07-31T22:51:29.221Z,84.17
2022-07-31T22:53:57.034Z,83.71
2022-07-31T22:56:24.794Z,83.80
2022-07-31T22:58:52.554Z,83.68
2022-07-31T23:01:20.383Z,83.68
2022-07-31T23:03:49.605Z,83.76
2022-07-31T23:06:31.290Z,83.79
2022-07-31T23:09:00.938Z,83.82
2022-07-31T23:11:28.865Z,84.09
2022-07-31T23:13:56.767Z,84.07
2022-07-31T23:16:24.847Z,84.43
2022-07-31T23:18:54.133Z,84.51
2022-07-31T23:21:22.205Z,84.44
2022-07-31T23:23:50.133Z,84.79
2022-07-31T23:26:19.123Z,84.52
2022-07-31T23:28:47.484Z,84.63
2022-07-31T23:31:15.316Z,85.09
2022-07-31T23:33:43.163Z,85.60
2022-07-31T23:36:12.802Z,85.93
2022-07-31T23:38:40.849Z,85.55
2022-07-31T23:41:08.666Z,85.88
2022-07-31T23:43:35.797Z,85.71
2022-07-31T23:46:03.742Z,85.52
2022-07-31T23:48:32.992Z,86.21
2022-07-31T23:51:00.768Z,86.38
2022-07-31T23:53:30.061Z,86.68
2022-07-31T23:55:57.869Z,85.95
2022-07-31T23:58:25.649Z,86.43
